Time;durP1;ratioP1;P1;durP2;ratioP2;P2;SDS_P1;SDS_P2;PMS_P1;PMS_P2;Temp;Humidity;BMP_temperature;BMP_pressure;BME280_temperature;BME280_humidity;BME280_pressure;Samples;Min_cycle;Max_cycle;Signal;HPM_P1;HPM_P2
2022/07/21 00:02:08;;;;;;;9.70;8.70;;;26.70;1.00;;;;;;6354216;22;20429;-77
2022/07/21 00:04:35;;;;;;;10.30;9.40;;;26.70;1.00;;;;;;6357652;22;20436;-75
2022/07/21 00:07:05;;;;;;;12.63;9.50;;;26.70;1.00;;;;;;6353841;22;20389;-78
2022/07/21 00:09:31;;;;;;;9.43;8.67;;;26.60;1.00;;;;;;6352695;22;20492;-78
2022/07/21 00:12:10;;;;;;;10.90;9.90;;;26.60;1.00;;;;;;6352991;22;20421;-76
2022/07/21 00:14:42;;;;;;;9.63;8.63;;;26.50;1.00;;;;;;6354416;22;20492;-75
2022/07/21 00:17:09;;;;;;;12.33;9.10;;;26.50;1.00;;;;;;6339357;22;20452;-77
2022/07/21 00:19:36;;;;;;;10.80;9.80;;;26.40;1.00;;;;;;6353199;22;20836;-76
2022/07/21 00:22:04;;;;;;;10.97;9.87;;;26.40;1.00;;;;;;6356723;22;20456;-80
2022/07/21 00:24:31;;;;;;;11.03;10.03;;;26.30;1.00;;;;;;6352993;22;20437;-82
2022/07/21 00:27:04;;;;;;;10.47;9.37;;;26.20;1.00;;;;;;6353449;22;20453;-79
2022/07/21 00:29:31;;;;;;;10.47;9.43;;;26.20;1.00;;;;;;6353710;22;20432;-79
2022/07/21 00:31:59;;;;;;;10.70;9.80;;;26.20;1.00;;;;;;6353644;22;20428;-81
2022/07/21 00:34:26;;;;;;;10.90;9.30;;;26.20;1.00;;;;;;6353898;22;20471;-80
2022/07/21 00:36:53;;;;;;;10.83;9.83;;;26.10;1.00;;;;;;6351553;22;20425;-79
2022/07/21 00:39:20;;;;;;;10.57;9.47;;;26.10;1.00;;;;;;6355482;22;20383;-80
2022/07/21 00:41:51;;;;;;;10.17;9.23;;;26.10;1.00;;;;;;6355438;22;20429;-79
2022/07/21 00:44:24;;;;;;;10.23;9.23;;;26.00;1.00;;;;;;6355225;22;20406;-82
2022/07/21 00:46:53;;;;;;;10.00;9.10;;;26.00;1.00;;;;;;6353247;22;20400;-80
2022/07/21 00:49:21;;;;;;;11.33;9.90;;;26.00;1.00;;;;;;6354348;22;20414;-79
2022/07/21 00:51:53;;;;;;;10.60;9.60;;;25.90;1.00;;;;;;6353860;22;20532;-80
2022/07/21 00:54:20;;;;;;;10.60;9.60;;;25.90;1.00;;;;;;6354282;22;20421;-79
2022/07/21 00:56:49;;;;;;;10.60;9.70;;;25.90;1.00;;;;;;6354196;22;20417;-76
2022/07/21 00:59:17;;;;;;;10.50;9.47;;;25.90;1.00;;;;;;6347958;22;20433;-80
2022/07/21 01:01:45;;;;;;;12.00;9.67;;;25.80;1.00;;;;;;6356122;22;20440;-78
2022/07/21 01:04:13;;;;;;;10.10;9.10;;;25.80;1.00;;;;;;6355686;22;20390;-77
2022/07/21 01:06:40;;;;;;;9.30;8.50;;;25.70;1.00;;;;;;6355784;22;20389;-78
2022/07/21 01:09:08;;;;;;;9.80;8.93;;;25.70;1.00;;;;;;6336787;22;20429;-76
2022/07/21 01:11:35;;;;;;;9.80;8.97;;;25.70;1.00;;;;;;6355106;22;20428;-77
2022/07/21 01:14:02;;;;;;;10.60;9.57;;;25.60;1.00;;;;;;6353301;22;20497;-77
2022/07/21 01:16:33;;;;;;;9.77;8.97;;;25.60;1.00;;;;;;6353622;22;20393;-77
2022/07/21 01:19:01;;;;;;;9.20;8.40;;;25.60;1.00;;;;;;6337716;22;20445;-78
2022/07/21 01:21:35;;;;;;;9.87;9.17;;;25.60;1.00;;;;;;6355507;22;20913;-81
2022/07/21 01:24:03;;;;;;;11.43;10.23;;;25.70;1.00;;;;;;6354295;22;20409;-78
2022/07/21 01:26:43;;;;;;;9.93;8.93;;;25.60;1.00;;;;;;6350895;22;20434;-80
2022/07/21 01:29:13;;;;;;;9.97;9.10;;;25.50;1.00;;;;;;6356104;22;20385;-81
2022/07/21 01:31:42;;;;;;;9.67;8.87;;;25.60;1.00;;;;;;6354389;22;20430;-80
2022/07/21 01:34:14;;;;;;;9.97;9.17;;;25.50;1.00;;;;;;6353158;22;20400;-84
2022/07/21 01:36:46;;;;;;;10.23;9.10;;;25.50;1.00;;;;;;6348143;22;20425;-81
2022/07/21 01:42:04;;;;;;;10.83;9.83;;;25.50;1.00;;;;;;6308445;22;20401;-79
2022/07/21 01:44:31;;;;;;;10.10;9.10;;;25.50;1.00;;;;;;6349918;22;20389;-79
2022/07/21 01:46:58;;;;;;;10.43;9.53;;;25.60;1.00;;;;;;6347968;22;20428;-79
2022/07/21 01:49:28;;;;;;;10.90;9.80;;;25.60;1.00;;;;;;6349607;22;20855;-79
2022/07/21 01:51:57;;;;;;;10.67;9.77;;;25.60;1.00;;;;;;6355691;22;20865;-79
2022/07/21 01:54:24;;;;;;;10.40;9.50;;;25.50;1.00;;;;;;6356929;22;20415;-76
2022/07/21 01:56:53;;;;;;;10.50;9.50;;;25.50;1.00;;;;;;6354880;22;20377;-78
2022/07/21 01:59:20;;;;;;;10.37;9.63;;;25.40;1.00;;;;;;6355130;22;20445;-77
2022/07/21 02:01:53;;;;;;;10.60;9.40;;;25.30;1.00;;;;;;6356602;22;20910;-79
2022/07/21 02:04:20;;;;;;;10.27;9.13;;;25.30;1.00;;;;;;6354510;22;20756;-80
2022/07/21 02:06:51;;;;;;;10.70;9.00;;;25.30;1.00;;;;;;6353842;22;20983;-77
2022/07/21 02:09:20;;;;;;;10.33;9.40;;;25.20;1.00;;;;;;6337101;22;20426;-79
2022/07/21 02:11:50;;;;;;;10.63;9.53;;;25.20;1.00;;;;;;6353829;22;20504;-76
2022/07/21 02:14:16;;;;;;;10.73;9.73;;;25.20;1.00;;;;;;6352247;22;20413;-77
2022/07/21 02:16:43;;;;;;;10.47;9.27;;;25.20;1.00;;;;;;6353839;22;20416;-76
2022/07/21 02:19:14;;;;;;;9.93;9.13;;;25.10;1.00;;;;;;6353173;22;20373;-77
2022/07/21 02:21:40;;;;;;;10.33;9.37;;;25.10;1.00;;;;;;6355829;22;20423;-78
2022/07/21 02:24:13;;;;;;;10.50;9.53;;;25.10;1.00;;;;;;6339064;22;20414;-80
2022/07/21 02:26:44;;;;;;;9.53;8.73;;;25.00;1.00;;;;;;6352696;22;20418;-80
2022/07/21 02:29:14;;;;;;;10.43;9.40;;;24.90;1.00;;;;;;6327703;22;20561;-77
2022/07/21 02:31:41;;;;;;;9.93;9.03;;;24.90;1.00;;;;;;6339195;22;20433;-79
2022/07/21 02:34:13;;;;;;;9.90;8.70;;;24.90;1.00;;;;;;6353818;22;20385;-80
2022/07/21 02:36:40;;;;;;;10.13;9.13;;;24.80;1.00;;;;;;6355666;22;20417;-80
2022/07/21 02:39:11;;;;;;;9.50;8.67;;;24.80;1.00;;;;;;6326127;22;20421;-79
2022/07/21 02:41:37;;;;;;;9.07;8.37;;;24.80;1.00;;;;;;6352481;22;20435;-77
2022/07/21 02:44:06;;;;;;;9.67;8.53;;;24.80;1.00;;;;;;6308614;22;20496;-78
2022/07/21 02:46:33;;;;;;;9.13;8.40;;;24.70;1.00;;;;;;6352645;22;20422;-75
2022/07/21 02:49:00;;;;;;;8.93;8.33;;;24.80;1.00;;;;;;6351942;22;20464;-77
2022/07/21 02:51:34;;;;;;;10.70;9.80;;;24.80;1.00;;;;;;6354117;22;20433;-80
2022/07/21 02:54:01;;;;;;;11.17;10.17;;;24.80;1.00;;;;;;6346917;22;20428;-74
2022/07/21 02:56:28;;;;;;;10.43;9.37;;;24.70;1.00;;;;;;6352845;22;20492;-77
2022/07/21 02:58:55;;;;;;;9.57;8.63;;;24.70;1.00;;;;;;6351984;22;20437;-78
2022/07/21 03:01:24;;;;;;;10.27;9.33;;;24.70;1.00;;;;;;6347409;22;20508;-77
2022/07/21 03:03:51;;;;;;;10.20;9.30;;;24.60;1.00;;;;;;6346793;22;20416;-77
2022/07/21 03:06:19;;;;;;;10.07;9.07;;;24.50;1.00;;;;;;6347928;22;20482;-77
2022/07/21 03:08:46;;;;;;;10.17;8.23;;;24.50;1.00;;;;;;6348174;22;20512;-76
2022/07/21 03:11:13;;;;;;;9.43;8.60;;;24.50;1.00;;;;;;6346610;22;20525;-78
2022/07/21 03:13:43;;;;;;;9.63;7.60;;;24.50;1.00;;;;;;6355518;22;20380;-79
2022/07/21 03:16:10;;;;;;;9.60;8.73;;;24.40;1.00;;;;;;6352764;22;20485;-80
2022/07/21 03:18:43;;;;;;;9.60;8.70;;;24.50;1.00;;;;;;6354953;22;20825;-80
2022/07/21 03:21:10;;;;;;;9.33;8.63;;;24.50;1.00;;;;;;6354270;22;20417;-81
2022/07/21 03:23:45;;;;;;;9.73;8.90;;;24.50;1.00;;;;;;6355913;22;20409;-81
2022/07/21 03:26:13;;;;;;;9.47;8.70;;;24.50;1.00;;;;;;6353302;22;20412;-78
2022/07/21 03:28:43;;;;;;;9.03;8.30;;;24.50;1.00;;;;;;6356454;22;20376;-80
2022/07/21 03:31:11;;;;;;;9.00;8.20;;;24.50;1.00;;;;;;6354459;22;20421;-80
2022/07/21 03:33:43;;;;;;;9.83;9.03;;;24.50;1.00;;;;;;6355865;22;20893;-77
2022/07/21 03:36:12;;;;;;;10.87;8.77;;;24.50;1.00;;;;;;6353325;22;20450;-79
2022/07/21 03:38:43;;;;;;;9.43;8.43;;;24.60;1.00;;;;;;6354880;22;20429;-77
2022/07/21 03:41:10;;;;;;;10.10;9.10;;;24.50;1.00;;;;;;6352992;22;20482;-81
2022/07/21 03:43:37;;;;;;;9.17;8.37;;;24.60;1.00;;;;;;6354832;22;20562;-79
2022/07/21 03:46:04;;;;;;;9.80;8.80;;;24.50;1.00;;;;;;6354059;22;20398;-79
2022/07/21 03:48:32;;;;;;;8.97;8.07;;;24.50;1.00;;;;;;6353859;22;20425;-77
2022/07/21 03:51:06;;;;;;;12.07;8.50;;;24.50;1.00;;;;;;6352533;22;20393;-79
2022/07/21 03:53:33;;;;;;;9.13;7.87;;;24.50;1.00;;;;;;6354585;22;20411;-78
2022/07/21 03:56:04;;;;;;;9.03;8.10;;;24.50;1.00;;;;;;6354242;22;20464;-80
2022/07/21 03:58:31;;;;;;;9.90;8.17;;;24.50;1.00;;;;;;6355742;22;20579;-76
2022/07/21 04:01:03;;;;;;;8.33;7.53;;;24.60;1.00;;;;;;6354861;22;20508;-80
2022/07/21 04:03:33;;;;;;;11.87;8.20;;;24.60;1.00;;;;;;6353333;22;20442;-77
2022/07/21 04:06:10;;;;;;;11.27;7.30;;;24.60;1.00;;;;;;6352091;22;20377;-76
2022/07/21 04:08:36;;;;;;;7.93;7.10;;;24.60;1.00;;;;;;6331644;22;20419;-77
2022/07/21 04:11:04;;;;;;;7.93;7.13;;;24.70;1.00;;;;;;6351065;22;20399;-76
2022/07/21 04:13:32;;;;;;;10.00;7.63;;;24.70;1.00;;;;;;6356026;22;20398;-81
2022/07/21 04:16:04;;;;;;;9.03;7.40;;;24.80;1.00;;;;;;6356947;22;20389;-75
2022/07/21 04:18:31;;;;;;;8.03;7.23;;;24.80;1.00;;;;;;6357762;22;20897;-79
2022/07/21 04:21:03;;;;;;;9.63;7.53;;;24.90;1.00;;;;;;6357880;22;20425;-80
2022/07/21 04:23:31;;;;;;;8.27;6.57;;;24.90;1.00;;;;;;6355016;22;20380;-80
2022/07/21 04:26:02;;;;;;;8.07;7.37;;;24.90;1.00;;;;;;6354825;22;20393;-81
2022/07/21 04:28:29;;;;;;;7.17;6.57;;;24.90;1.00;;;;;;6358070;22;20421;-76
2022/07/21 04:31:03;;;;;;;7.93;6.87;;;24.90;1.00;;;;;;6352506;22;20449;-80
2022/07/21 04:33:31;;;;;;;7.33;6.57;;;24.90;1.00;;;;;;6355106;22;20412;-78
2022/07/21 04:36:00;;;;;;;8.47;7.53;;;24.90;1.00;;;;;;6352896;22;20512;-77
2022/07/21 04:38:27;;;;;;;7.70;7.00;;;24.80;1.00;;;;;;6354882;22;20385;-75
2022/07/21 04:40:55;;;;;;;8.33;7.53;;;24.80;1.00;;;;;;6352801;22;20421;-80
2022/07/21 04:43:24;;;;;;;8.27;7.50;;;24.80;1.00;;;;;;6357027;22;20457;-80
2022/07/21 04:45:51;;;;;;;7.63;6.93;;;24.70;1.00;;;;;;6356477;22;20499;-79
2022/07/21 04:48:22;;;;;;;9.07;8.00;;;24.70;1.00;;;;;;6342381;22;20947;-78
2022/07/21 04:50:49;;;;;;;8.80;7.90;;;24.80;1.00;;;;;;6354765;22;20456;-79
2022/07/21 04:53:16;;;;;;;8.67;7.77;;;24.80;1.00;;;;;;6354182;22;20409;-78
2022/07/21 04:55:44;;;;;;;9.70;8.13;;;24.80;1.00;;;;;;6356308;22;20481;-79
2022/07/21 04:58:12;;;;;;;9.40;8.53;;;24.90;1.00;;;;;;6354938;22;20405;-79
2022/07/21 05:00:46;;;;;;;9.97;8.00;;;24.90;1.00;;;;;;6355523;22;20402;-76
2022/07/21 05:03:13;;;;;;;8.03;7.43;;;24.90;1.00;;;;;;6353767;22;20441;-79
2022/07/21 05:05:43;;;;;;;11.43;9.60;;;24.90;1.00;;;;;;6357435;22;20402;-80
2022/07/21 05:08:10;;;;;;;12.13;9.50;;;24.90;1.00;;;;;;6355618;22;20437;-79
2022/07/21 05:10:44;;;;;;;12.27;9.00;;;24.90;1.00;;;;;;6355979;22;20512;-78
2022/07/21 05:13:12;;;;;;;11.87;8.67;;;24.90;1.00;;;;;;6352884;22;20424;-80
2022/07/21 05:15:44;;;;;;;10.83;9.73;;;24.90;1.00;;;;;;6355353;22;20401;-74
2022/07/21 05:18:11;;;;;;;11.97;10.60;;;24.80;1.00;;;;;;6352569;22;20415;-76
2022/07/21 05:20:42;;;;;;;11.77;10.60;;;24.90;1.00;;;;;;6354030;22;20405;-77
2022/07/21 05:23:14;;;;;;;11.97;10.83;;;24.90;1.00;;;;;;6355872;22;20390;-81
2022/07/21 05:25:42;;;;;;;12.73;11.63;;;25.00;1.00;;;;;;6356526;22;20417;-76
2022/07/21 05:28:09;;;;;;;15.67;14.00;;;25.10;1.00;;;;;;6353471;22;20622;-78
2022/07/21 05:30:42;;;;;;;15.37;13.87;;;25.10;1.00;;;;;;6352099;22;20422;-76
2022/07/21 05:33:09;;;;;;;21.97;19.97;;;25.10;1.00;;;;;;6356005;22;20480;-77
2022/07/21 05:35:36;;;;;;;19.80;18.10;;;25.00;1.00;;;;;;6353463;22;20437;-77
2022/07/21 05:38:05;;;;;;;20.93;19.13;;;24.90;1.00;;;;;;6356659;22;20384;-79
2022/07/21 05:40:31;;;;;;;22.17;19.00;;;24.90;1.00;;;;;;6352930;22;20468;-75
2022/07/21 05:43:03;;;;;;;20.70;18.90;;;24.90;1.00;;;;;;6349571;22;20427;-77
2022/07/21 05:45:30;;;;;;;20.90;19.10;;;24.90;1.00;;;;;;6327614;22;20496;-79
2022/07/21 05:48:03;;;;;;;22.00;20.10;;;24.90;1.00;;;;;;6354099;22;20427;-81
2022/07/21 05:50:31;;;;;;;22.13;20.10;;;24.90;1.00;;;;;;6356215;22;20460;-79
2022/07/21 05:53:02;;;;;;;21.03;19.30;;;24.90;1.00;;;;;;6354731;22;20504;-78
2022/07/21 05:55:31;;;;;;;21.70;19.80;;;25.00;1.00;;;;;;6355509;22;21240;-77
2022/07/21 05:58:01;;;;;;;21.90;19.77;;;24.90;1.00;;;;;;6353124;22;20508;-79
2022/07/21 06:00:28;;;;;;;23.63;21.43;;;25.00;1.00;;;;;;6352608;22;20483;-78
2022/07/21 06:02:55;;;;;;;22.57;20.33;;;25.10;1.00;;;;;;6353404;22;20956;-77
2022/07/21 06:05:26;;;;;;;24.50;22.23;;;25.10;1.00;;;;;;6355443;22;20412;-78
2022/07/21 06:07:54;;;;;;;23.10;21.27;;;25.20;1.00;;;;;;6350792;22;20928;-80
2022/07/21 06:10:24;;;;;;;24.50;22.17;;;25.20;1.00;;;;;;6352674;22;20425;-80
2022/07/21 06:12:51;;;;;;;23.63;21.53;;;25.20;1.00;;;;;;6352362;22;20508;-78
2022/07/21 06:15:22;;;;;;;22.50;20.53;;;25.10;1.00;;;;;;6352997;22;20543;-76
2022/07/21 06:17:49;;;;;;;22.40;20.40;;;25.10;1.00;;;;;;6353159;22;20413;-80
2022/07/21 06:20:15;;;;;;;22.20;20.00;;;25.10;1.00;;;;;;6352997;22;20429;-78
2022/07/21 06:22:46;;;;;;;22.43;20.47;;;25.20;1.00;;;;;;6352988;22;20385;-80
2022/07/21 06:25:13;;;;;;;23.00;21.00;;;25.20;1.00;;;;;;6352837;22;20439;-80
2022/07/21 06:27:43;;;;;;;22.80;20.97;;;25.20;1.00;;;;;;6355411;22;20405;-80
2022/07/21 06:30:14;;;;;;;21.87;20.07;;;25.30;1.00;;;;;;6349807;22;20445;-79
2022/07/21 06:32:41;;;;;;;21.73;19.90;;;25.40;1.00;;;;;;6325329;22;20413;-76
2022/07/21 06:35:13;;;;;;;20.93;18.87;;;25.40;1.00;;;;;;6351590;22;22480;-78
2022/07/21 06:37:46;;;;;;;23.30;21.10;;;25.50;1.00;;;;;;6353843;22;20417;-76
2022/07/21 06:40:14;;;;;;;20.93;19.23;;;25.50;1.00;;;;;;6350701;22;20417;-77
2022/07/21 06:42:46;;;;;;;22.10;20.30;;;25.60;1.00;;;;;;6355637;22;20449;-81
2022/07/21 06:45:14;;;;;;;22.73;20.83;;;25.50;1.00;;;;;;6352976;22;20462;-77
2022/07/21 06:47:47;;;;;;;23.23;21.23;;;25.50;1.00;;;;;;6339646;22;20473;-80
2022/07/21 06:50:14;;;;;;;23.03;20.90;;;25.60;1.00;;;;;;6356584;22;20443;-79
2022/07/21 06:52:44;;;;;;;20.70;18.90;;;25.50;1.00;;;;;;6356351;22;20393;-78
2022/07/21 06:55:12;;;;;;;21.40;19.60;;;25.60;1.00;;;;;;6356085;22;20800;-76
2022/07/21 06:57:44;;;;;;;21.40;19.30;;;25.60;1.00;;;;;;6342344;22;20421;-77
2022/07/21 07:00:12;;;;;;;22.37;20.00;;;25.70;1.00;;;;;;6356220;22;20500;-77
2022/07/21 07:02:44;;;;;;;23.17;20.83;;;25.70;1.00;;;;;;6356490;22;20749;-77
2022/07/21 07:05:11;;;;;;;20.80;19.07;;;25.70;1.00;;;;;;6355663;22;20409;-80
2022/07/21 07:07:38;;;;;;;22.10;20.13;;;25.80;1.00;;;;;;6356737;22;20452;-77
2022/07/21 07:10:08;;;;;;;22.83;20.70;;;25.70;1.00;;;;;;6355184;22;20429;-80
2022/07/21 07:12:36;;;;;;;19.50;17.80;;;25.70;1.00;;;;;;6357849;22;20378;-77
2022/07/21 07:15:05;;;;;;;21.13;19.13;;;25.80;1.00;;;;;;6356262;22;20397;-77
2022/07/21 07:17:33;;;;;;;21.20;19.50;;;25.80;1.00;;;;;;6355684;22;20976;-81
2022/07/21 07:20:07;;;;;;;20.60;18.43;;;25.90;1.00;;;;;;6356768;22;20405;-79
2022/07/21 07:22:34;;;;;;;20.40;18.63;;;25.90;1.00;;;;;;6355970;22;20408;-79
2022/07/21 07:25:05;;;;;;;20.40;18.80;;;25.90;1.00;;;;;;6355697;22;20417;-82
2022/07/21 07:27:32;;;;;;;21.50;19.60;;;25.90;1.00;;;;;;6355493;22;20817;-78
2022/07/21 07:30:09;;;;;;;20.90;18.93;;;26.00;1.00;;;;;;6356070;22;20459;-78
2022/07/21 07:32:36;;;;;;;20.10;18.20;;;26.00;1.00;;;;;;6357083;22;20413;-79
2022/07/21 07:35:05;;;;;;;20.30;18.37;;;26.10;1.00;;;;;;6357263;22;20377;-77
2022/07/21 07:37:34;;;;;;;21.53;19.67;;;26.20;1.00;;;;;;6358284;22;20532;-77
2022/07/21 07:40:00;;;;;;;20.10;18.37;;;26.30;1.00;;;;;;6353006;22;20839;-77
2022/07/21 07:42:27;;;;;;;19.63;17.87;;;26.40;1.00;;;;;;6353835;22;20413;-77
2022/07/21 07:44:54;;;;;;;20.10;18.40;;;26.50;1.00;;;;;;6357696;22;20499;-78
2022/07/21 07:47:23;;;;;;;19.23;17.63;;;26.50;1.00;;;;;;6355467;22;20481;-79
2022/07/21 07:49:52;;;;;;;18.70;17.20;;;26.70;1.00;;;;;;6357261;22;20432;-78
2022/07/21 07:52:25;;;;;;;18.77;17.17;;;26.70;1.00;;;;;;6355935;22;20488;-79
2022/07/21 07:54:52;;;;;;;18.50;16.87;;;26.70;1.00;;;;;;6356863;22;20877;-79
2022/07/21 07:57:24;;;;;;;19.23;17.73;;;26.80;1.00;;;;;;6357217;22;20421;-78
2022/07/21 07:59:52;;;;;;;17.93;16.53;;;26.90;1.00;;;;;;6353196;22;20425;-79
2022/07/21 08:02:23;;;;;;;19.00;17.10;;;27.10;1.00;;;;;;6354722;22;20409;-81
2022/07/21 08:04:51;;;;;;;17.90;16.33;;;27.30;1.00;;;;;;6353829;22;20428;-79
2022/07/21 08:07:23;;;;;;;17.70;16.20;;;27.50;1.00;;;;;;6356749;22;20373;-81
2022/07/21 08:09:49;;;;;;;17.97;16.47;;;27.70;1.00;;;;;;6356413;22;20433;-78
2022/07/21 08:12:19;;;;;;;17.20;15.70;;;28.00;1.00;;;;;;6353727;22;20421;-79
2022/07/21 08:14:46;;;;;;;18.60;16.77;;;28.10;1.00;;;;;;6354328;22;20457;-79
2022/07/21 08:17:13;;;;;;;17.60;16.00;;;28.40;1.00;;;;;;6352217;22;20410;-78
2022/07/21 08:19:45;;;;;;;17.43;15.70;;;28.50;1.00;;;;;;6355822;22;20424;-78
2022/07/21 08:22:15;;;;;;;16.50;15.10;;;28.70;1.00;;;;;;6354852;22;20492;-79
2022/07/21 08:24:46;;;;;;;16.50;15.10;;;28.90;1.00;;;;;;6356517;22;20413;-79
2022/07/21 08:27:13;;;;;;;16.53;15.10;;;29.10;1.00;;;;;;6355941;22;20496;-80
2022/07/21 08:29:46;;;;;;;15.80;14.50;;;29.10;1.00;;;;;;6358145;22;20397;-78
2022/07/21 08:32:13;;;;;;;16.73;15.17;;;29.30;1.00;;;;;;6352051;22;20419;-77
2022/07/21 08:34:47;;;;;;;15.23;14.03;;;29.50;1.00;;;;;;6354824;22;20390;-77
2022/07/21 08:37:24;;;;;;;15.30;14.20;;;29.70;1.00;;;;;;6355522;22;20502;-80
2022/07/21 08:39:51;;;;;;;16.47;14.97;;;29.60;1.00;;;;;;6353545;22;20421;-80
2022/07/21 08:42:19;;;;;;;16.27;14.90;;;29.50;1.00;;;;;;6354298;22;20393;-77
2022/07/21 08:44:48;;;;;;;16.03;14.63;;;29.50;1.00;;;;;;6356314;22;20419;-81
2022/07/21 08:47:15;;;;;;;15.70;14.40;;;29.50;1.00;;;;;;6354959;22;20417;-79
2022/07/21 08:49:47;;;;;;;16.80;15.23;;;29.60;1.00;;;;;;6353733;22;20451;-79
2022/07/21 08:52:14;;;;;;;17.37;15.43;;;29.70;1.00;;;;;;6351759;22;20501;-80
2022/07/21 08:54:59;;;;;;;15.17;13.87;;;29.70;1.00;;;;;;6355740;22;20494;-78
2022/07/21 08:57:28;;;;;;;16.07;14.77;;;29.50;1.00;;;;;;6354011;22;21122;-81
2022/07/21 08:59:55;;;;;;;15.37;14.07;;;29.30;1.00;;;;;;6354491;22;20495;-78
2022/07/21 09:02:30;;;;;;;17.37;15.93;;;29.20;1.00;;;;;;6355416;22;20433;-77
2022/07/21 09:04:57;;;;;;;15.77;14.43;;;29.20;1.00;;;;;;6354126;22;20433;-77
2022/07/21 09:07:25;;;;;;;16.30;15.07;;;29.40;1.00;;;;;;6354543;22;20940;-79
2022/07/21 09:10:02;;;;;;;15.73;14.50;;;29.50;1.00;;;;;;6353825;22;20427;-79
2022/07/21 09:12:48;;;;;;;15.30;14.10;;;29.60;1.00;;;;;;6355498;22;21101;-80
2022/07/21 09:15:24;;;;;;;16.17;14.60;;;29.70;1.00;;;;;;6353385;22;20448;-77
2022/07/21 09:18:07;;;;;;;15.30;14.10;;;30.00;1.00;;;;;;6352312;22;20424;-79
2022/07/21 09:20:35;;;;;;;14.83;13.67;;;30.20;1.00;;;;;;6356368;22;20424;-78
2022/07/21 09:23:05;;;;;;;16.07;14.57;;;30.40;1.00;;;;;;6353888;22;20508;-81
2022/07/21 09:25:42;;;;;;;15.70;14.40;;;30.60;1.00;;;;;;6355461;22;20440;-78
2022/07/21 09:28:12;;;;;;;17.33;14.70;;;30.80;1.00;;;;;;6354861;22;20407;-75
2022/07/21 09:30:55;;;;;;;15.23;13.90;;;31.10;1.00;;;;;;6352115;22;20425;-77
2022/07/21 09:33:26;;;;;;;12.20;11.20;;;31.20;1.00;;;;;;6350055;22;20449;-77
2022/07/21 09:36:01;;;;;;;13.07;12.03;;;31.30;1.00;;;;;;6353989;22;20445;-81
2022/07/21 09:38:34;;;;;;;16.17;14.83;;;31.20;1.00;;;;;;6355001;22;20437;-79
2022/07/21 09:41:14;;;;;;;14.63;13.50;;;31.30;1.00;;;;;;6353275;22;20495;-80
2022/07/21 09:43:45;;;;;;;15.93;14.23;;;31.60;1.00;;;;;;6354152;22;20466;-78
2022/07/21 09:46:18;;;;;;;14.00;12.87;;;31.80;1.00;;;;;;6354233;22;20401;-79
2022/07/21 09:48:47;;;;;;;13.60;12.40;;;31.80;1.00;;;;;;6356361;22;20385;-80
2022/07/21 09:51:23;;;;;;;12.53;11.60;;;31.90;1.00;;;;;;6352338;22;20403;-80
2022/07/21 09:53:51;;;;;;;14.43;13.30;;;31.90;1.00;;;;;;6355952;22;20457;-80
2022/07/21 09:56:29;;;;;;;13.20;11.97;;;32.00;1.00;;;;;;6357561;22;20483;-78
2022/07/21 09:58:57;;;;;;;11.77;10.87;;;32.20;1.00;;;;;;6354447;22;20415;-80
2022/07/21 10:01:27;;;;;;;11.00;10.10;;;32.10;1.00;;;;;;6354635;22;20473;-80
2022/07/21 10:03:56;;;;;;;10.37;9.53;;;32.00;1.00;;;;;;6350677;22;20449;-77
2022/07/21 10:06:27;;;;;;;12.27;10.97;;;32.10;1.00;;;;;;6353260;22;20417;-80
2022/07/21 10:08:54;;;;;;;11.93;10.93;;;32.30;1.00;;;;;;6356715;22;20437;-79
2022/07/21 10:11:28;;;;;;;11.23;10.20;;;32.60;1.00;;;;;;6357095;22;20408;-79
2022/07/21 10:13:55;;;;;;;9.37;8.63;;;32.60;1.00;;;;;;6355080;22;20837;-79
2022/07/21 10:16:25;;;;;;;10.87;10.00;;;33.00;1.00;;;;;;6355419;22;20386;-79
2022/07/21 10:19:08;;;;;;;10.50;9.60;;;33.20;1.00;;;;;;6352673;22;20436;-79
2022/07/21 10:21:49;;;;;;;10.43;9.63;;;33.60;1.00;;;;;;6356087;22;20452;-75
2022/07/21 10:24:17;;;;;;;9.83;8.93;;;33.90;1.00;;;;;;6357747;22;20409;-80
2022/07/21 10:27:07;;;;;;;10.70;9.80;;;33.90;1.00;;;;;;6356691;22;20469;-82
2022/07/21 10:29:56;;;;;;;9.90;9.00;;;33.90;1.00;;;;;;6356103;22;21014;-80
2022/07/21 10:32:26;;;;;;;10.17;9.13;;;33.90;1.00;;;;;;6353080;22;20517;-80
2022/07/21 10:35:02;;;;;;;11.20;8.80;;;34.20;1.00;;;;;;6350368;22;20379;-79
2022/07/21 10:37:47;;;;;;;9.57;8.60;;;34.30;1.00;;;;;;6356123;22;20485;-81
2022/07/21 10:40:43;;;;;;;9.20;8.40;;;34.40;1.00;;;;;;6357753;22;20429;-77
2022/07/21 10:43:44;;;;;;;8.23;7.47;;;34.10;1.00;;;;;;6355155;22;20425;-78
2022/07/21 10:46:43;;;;;;;8.00;7.33;;;33.40;1.00;;;;;;6348202;22;20432;-77
2022/07/21 10:49:11;;;;;;;9.47;8.60;;;32.60;1.00;;;;;;6354195;22;21058;-76
2022/07/21 10:51:43;;;;;;;8.67;7.87;;;32.20;1.00;;;;;;6354857;22;20938;-77
2022/07/21 10:54:25;;;;;;;8.93;8.03;;;32.00;1.00;;;;;;6354402;22;20944;-80
2022/07/21 10:57:30;;;;;;;9.63;8.63;;;31.80;1.00;;;;;;6354363;22;20917;-78
2022/07/21 11:00:28;;;;;;;8.80;7.90;;;32.00;1.00;;;;;;6305022;22;20401;-80
2022/07/21 11:03:03;;;;;;;8.93;8.07;;;32.40;1.00;;;;;;6318699;22;20856;-81
2022/07/21 11:05:34;;;;;;;8.23;7.53;;;33.30;1.00;;;;;;6355312;22;20500;-79
2022/07/21 11:08:15;;;;;;;14.33;8.80;;;33.50;1.00;;;;;;6353935;22;20439;-79
2022/07/21 11:10:47;;;;;;;8.13;7.43;;;33.00;1.00;;;;;;6354326;22;20393;-80
2022/07/21 11:13:15;;;;;;;7.50;6.80;;;32.60;1.00;;;;;;6356298;22;20503;-81
2022/07/21 11:16:07;;;;;;;7.87;6.97;;;32.30;1.00;;;;;;6355845;22;20397;-77
2022/07/21 11:18:35;;;;;;;8.20;6.63;;;32.20;1.00;;;;;;6355268;22;20419;-81
2022/07/21 11:21:11;;;;;;;9.57;7.00;;;32.90;1.00;;;;;;6356432;22;20457;-80
2022/07/21 11:23:46;;;;;;;9.20;6.60;;;33.40;1.00;;;;;;6355529;22;20417;-76
2022/07/21 11:26:15;;;;;;;7.43;6.83;;;33.20;1.00;;;;;;6325336;22;20433;-77
2022/07/21 11:28:44;;;;;;;8.93;7.33;;;33.50;1.00;;;;;;6354247;22;20967;-77
2022/07/21 11:31:15;;;;;;;8.80;8.10;;;34.10;1.00;;;;;;6348630;22;20881;-77
2022/07/21 11:33:47;;;;;;;7.50;6.90;;;34.80;1.00;;;;;;6350274;22;20843;-77
2022/07/21 11:36:33;;;;;;;7.40;6.80;;;35.40;1.00;;;;;;6309913;22;20421;-77
2022/07/21 11:39:05;;;;;;;8.10;7.40;;;35.90;1.00;;;;;;6352115;22;20431;-79
2022/07/21 11:41:33;;;;;;;8.00;7.33;;;35.70;1.00;;;;;;6349985;22;20420;-79
2022/07/21 11:44:00;;;;;;;8.10;7.40;;;35.10;1.00;;;;;;6351719;22;20513;-79
2022/07/21 11:46:31;;;;;;;7.67;7.00;;;34.50;1.00;;;;;;6351393;22;20405;-79
2022/07/21 11:49:06;;;;;;;8.43;7.70;;;33.90;1.00;;;;;;6348000;22;20419;-78
2022/07/21 11:51:34;;;;;;;8.40;7.70;;;33.60;1.00;;;;;;6348760;22;20826;-78
2022/07/21 11:54:01;;;;;;;7.87;7.20;;;33.30;1.00;;;;;;6349607;22;20983;-77
2022/07/21 11:56:28;;;;;;;9.13;8.23;;;32.90;1.00;;;;;;6350173;22;20486;-77
2022/07/21 11:59:10;;;;;;;8.40;7.60;;;33.00;1.00;;;;;;6348964;22;20382;-79
2022/07/21 12:01:50;;;;;;;9.17;8.47;;;33.20;1.00;;;;;;6349309;22;20413;-78
2022/07/21 12:04:34;;;;;;;15.87;14.43;;;33.10;1.00;;;;;;6348425;22;20413;-78
2022/07/21 12:07:07;;;;;;;8.50;8.00;;;32.70;1.00;;;;;;6349051;22;20451;-77
2022/07/21 12:09:34;;;;;;;8.23;7.43;;;32.50;1.00;;;;;;6352297;22;20485;-78
2022/07/21 12:12:01;;;;;;;8.70;7.90;;;32.40;1.00;;;;;;6349807;22;20502;-77
2022/07/21 12:14:47;;;;;;;7.70;7.00;;;32.20;1.00;;;;;;6351475;22;20398;-78
2022/07/21 12:17:15;;;;;;;8.63;7.43;;;31.80;1.00;;;;;;6349697;22;20421;-79
2022/07/21 12:19:48;;;;;;;8.17;7.50;;;31.50;1.00;;;;;;6350436;22;20382;-78
2022/07/21 12:22:16;;;;;;;9.57;8.70;;;31.30;1.00;;;;;;6350051;22;20413;-78
2022/07/21 12:24:53;;;;;;;8.03;7.43;;;31.10;1.00;;;;;;6346939;22;20897;-78
2022/07/21 12:27:23;;;;;;;7.27;6.77;;;30.80;1.00;;;;;;6350725;22;20405;-78
2022/07/21 12:29:51;;;;;;;8.30;7.60;;;30.50;1.00;;;;;;6335469;22;20386;-79
2022/07/21 12:32:53;;;;;;;8.83;7.47;;;30.50;1.00;;;;;;6350351;22;20431;-78
2022/07/21 12:35:24;;;;;;;8.50;7.90;;;30.30;1.00;;;;;;6342278;22;20752;-78
2022/07/21 12:38:05;;;;;;;8.73;7.83;;;30.10;1.00;;;;;;6350174;22;20425;-78
2022/07/21 12:40:38;;;;;;;9.33;7.47;;;30.00;1.00;;;;;;6350482;22;20420;-78
2022/07/21 12:43:11;;;;;;;8.93;8.07;;;30.10;1.00;;;;;;6349865;22;20457;-78
2022/07/21 12:45:55;;;;;;;8.23;7.53;;;30.10;1.00;;;;;;6347755;22;20478;-78
2022/07/21 12:48:25;;;;;;;8.50;7.80;;;30.10;1.00;;;;;;6347211;22;20500;-77
2022/07/21 12:51:02;;;;;;;10.20;7.80;;;29.90;1.00;;;;;;6349246;22;20467;-78
2022/07/21 12:53:30;;;;;;;7.70;7.10;;;29.80;1.00;;;;;;6350672;22;20417;-77
2022/07/21 12:55:58;;;;;;;9.90;7.87;;;29.70;1.00;;;;;;6350458;22;20421;-76
2022/07/21 12:58:25;;;;;;;8.73;7.83;;;29.80;1.00;;;;;;6356376;22;20895;-77
2022/07/21 13:00:52;;;;;;;10.70;7.53;;;29.80;1.00;;;;;;6350993;22;21219;-78
2022/07/21 13:03:21;;;;;;;8.03;7.20;;;29.70;1.00;;;;;;6351651;22;20416;-78
2022/07/21 13:05:49;;;;;;;7.83;7.00;;;29.60;1.00;;;;;;6351104;22;20426;-78
2022/07/21 13:08:17;;;;;;;10.43;7.40;;;29.40;1.00;;;;;;6351984;22;20457;-78
2022/07/21 13:10:45;;;;;;;7.53;6.87;;;29.20;1.00;;;;;;6348152;22;20406;-79